createdAt,value
2019-06-04T00:02:02.283Z,76.30
2019-06-04T00:07:02.769Z,76.50
2019-06-04T00:12:04.605Z,76.30
2019-06-04T00:17:03.828Z,76.70
2019-06-04T00:22:03.743Z,76.20
2019-06-04T00:27:04.951Z,76.70
2019-06-04T00:32:04.874Z,77.00
2019-06-04T00:37:04.605Z,77.40
2019-06-04T00:42:04.823Z,77.90
2019-06-04T00:47:05.551Z,78.10
2019-06-04T00:52:06.404Z,77.40
2019-06-04T00:57:06.133Z,78.80
2019-06-04T01:02:06.136Z,79.50
2019-06-04T01:07:05.867Z,79.50
2019-06-04T01:12:06.111Z,79.80
2019-06-04T01:17:06.954Z,80.50
2019-06-04T01:22:07.077Z,81.00
2019-06-04T01:27:07.575Z,81.00
2019-06-04T01:32:14.925Z,80.70
2019-06-04T01:37:08.754Z,80.90
2019-06-04T01:42:09.467Z,81.30
2019-06-04T01:47:09.740Z,81.60
2019-06-04T01:52:10.212Z,81.90
2019-06-04T01:57:10.965Z,81.90
2019-06-04T02:02:28.890Z,81.70
2019-06-04T02:07:12.209Z,81.40
2019-06-04T02:12:17.236Z,81.30
2019-06-04T02:17:13.826Z,81.40
2019-06-04T02:22:14.092Z,81.50
2019-06-04T02:27:14.477Z,81.70
2019-06-04T02:32:14.885Z,82.00
2019-06-04T02:37:14.943Z,82.20
2019-06-04T02:42:15.353Z,82.20
2019-06-04T02:47:16.835Z,82.20
2019-06-04T02:52:18.186Z,82.00
2019-06-04T02:57:18.970Z,82.40
2019-06-04T03:02:19.343Z,82.30
2019-06-04T03:07:19.534Z,82.40
2019-06-04T03:12:19.618Z,82.00
2019-06-04T03:17:20.659Z,81.70
2019-06-04T03:22:20.861Z,81.70
2019-06-04T03:27:21.436Z,81.40
2019-06-04T03:32:23.351Z,81.80
2019-06-04T03:37:22.991Z,81.40
2019-06-04T03:42:23.658Z,81.40
2019-06-04T03:47:24.241Z,81.60
2019-06-04T03:52:24.965Z,81.60
2019-06-04T03:57:24.684Z,81.20
2019-06-04T04:02:24.795Z,81.50
2019-06-04T04:07:24.707Z,81.70
2019-06-04T04:12:24.858Z,81.50
2019-06-04T04:17:25.100Z,81.70
2019-06-04T04:22:25.157Z,81.60
2019-06-04T04:27:25.804Z,81.60
2019-06-04T04:32:25.915Z,81.70
2019-06-04T04:37:25.619Z,82.20
2019-06-04T04:42:26.185Z,82.40
2019-06-04T04:47:26.834Z,83.10
2019-06-04T04:52:27.775Z,83.20
2019-06-04T04:57:27.798Z,83.00
2019-06-04T05:02:28.308Z,83.00
2019-06-04T05:07:30.351Z,83.70
2019-06-04T05:12:31.710Z,83.90
2019-06-04T05:17:33.128Z,84.50
2019-06-04T05:22:34.340Z,85.00
2019-06-04T05:27:34.011Z,85.30
2019-06-04T05:32:34.329Z,85.00
2019-06-04T05:37:33.968Z,84.20
2019-06-04T05:42:33.744Z,84.00
2019-06-04T05:47:34.007Z,84.20
2019-06-04T05:52:33.692Z,84.00
2019-06-04T05:57:33.929Z,84.10
2019-06-04T06:02:34.309Z,83.80
2019-06-04T06:07:34.179Z,84.80
2019-06-04T06:12:34.117Z,85.30
2019-06-04T06:17:34.191Z,84.90
2019-06-04T06:22:34.716Z,85.10
2019-06-04T06:27:34.682Z,86.10
2019-06-04T06:32:34.986Z,85.60
2019-06-04T06:37:36.179Z,85.10
2019-06-04T06:42:35.943Z,84.70
2019-06-04T06:47:35.592Z,85.20
2019-06-04T06:52:35.459Z,85.50
2019-06-04T06:57:36.292Z,84.40
2019-06-04T07:02:37.088Z,83.90
2019-06-04T07:07:37.443Z,83.60
2019-06-04T07:12:39.030Z,84.10
2019-06-04T07:17:39.458Z,83.40
2019-06-04T07:22:40.653Z,83.70
2019-06-04T07:27:40.605Z,84.00
2019-06-04T07:32:41.405Z,83.00
2019-06-04T07:37:42.240Z,83.40
2019-06-04T07:42:41.900Z,83.30
2019-06-04T07:47:41.778Z,83.10
2019-06-04T07:52:43.129Z,84.40
2019-06-04T07:57:43.302Z,82.90
2019-06-04T08:02:43.103Z,83.20
2019-06-04T08:07:42.872Z,83.20
2019-06-04T08:12:43.559Z,82.20
2019-06-04T08:17:44.690Z,82.80
2019-06-04T08:22:44.574Z,81.40
2019-06-04T08:27:44.831Z,81.40
2019-06-04T08:32:46.015Z,81.70
2019-06-04T08:37:48.822Z,80.90
2019-06-04T08:42:53.447Z,80.80
2019-06-04T08:47:48.612Z,80.50
2019-06-04T08:52:48.683Z,80.00
2019-06-04T08:57:49.768Z,81.80
2019-06-04T09:02:50.960Z,79.80
2019-06-04T09:07:52.964Z,81.00
2019-06-04T09:12:52.696Z,82.00
2019-06-04T09:17:53.966Z,81.20
2019-06-04T09:22:53.924Z,81.80
2019-06-04T09:27:53.659Z,80.20
2019-06-04T09:32:53.450Z,80.10
2019-06-04T09:38:02.616Z,77.70
2019-06-04T09:42:55.429Z,76.70
2019-06-04T09:47:55.383Z,78.40
2019-06-04T09:52:56.686Z,79.70
2019-06-04T09:58:26.811Z,78.00
2019-06-04T10:03:02.882Z,76.50
2019-06-04T10:08:11.480Z,76.70
2019-06-04T10:13:01.951Z,73.70
2019-06-04T10:18:02.123Z,73.20
2019-06-04T10:23:02.091Z,71.00
2019-06-04T10:28:01.997Z,73.30
2019-06-04T10:33:07.005Z,71.20
2019-06-04T10:38:04.706Z,71.50
2019-06-04T10:43:04.589Z,69.80
2019-06-04T10:48:04.401Z,69.90
2019-06-04T10:53:05.662Z,68.60
2019-06-04T10:58:06.365Z,67.80
2019-06-04T11:03:10.631Z,68.40
2019-06-04T11:08:07.572Z,66.80
2019-06-04T11:13:07.330Z,66.50
2019-06-04T11:18:08.573Z,67.30
2019-06-04T11:23:08.392Z,65.70
2019-06-04T11:28:08.483Z,66.30
2019-06-04T11:33:08.958Z,65.10
2019-06-04T11:38:08.950Z,65.00
2019-06-04T11:43:12.023Z,64.70
2019-06-04T11:48:10.895Z,64.80
2019-06-04T11:53:11.283Z,64.40
2019-06-04T11:58:13.033Z,64.40
2019-06-04T12:03:13.033Z,65.20
2019-06-04T12:08:12.925Z,64.40
2019-06-04T12:13:12.720Z,65.00
2019-06-04T12:18:12.541Z,66.30
2019-06-04T12:23:28.809Z,64.90
2019-06-04T12:28:14.209Z,63.50
2019-06-04T12:33:14.035Z,64.10
2019-06-04T12:38:13.791Z,62.90
2019-06-04T12:43:13.660Z,61.60
2019-06-04T12:48:13.388Z,60.70
2019-06-04T12:53:13.095Z,59.70
2019-06-04T12:58:13.379Z,59.60
2019-06-04T13:03:14.188Z,58.10
2019-06-04T13:08:25.425Z,58.80
2019-06-04T13:13:15.950Z,58.30
2019-06-04T13:18:22.616Z,57.00
2019-06-04T13:23:18.303Z,57.80
2019-06-04T13:28:19.196Z,57.70
2019-06-04T13:33:19.296Z,55.90
2019-06-04T13:38:19.136Z,56.60
2019-06-04T13:43:19.031Z,56.50
2019-06-04T13:48:18.927Z,54.90
2019-06-04T13:53:23.919Z,54.30
2019-06-04T13:58:20.750Z,55.20
2019-06-04T14:03:20.668Z,54.20
2019-06-04T14:08:20.385Z,54.60
2019-06-04T14:13:20.311Z,52.70
2019-06-04T14:18:19.988Z,54.00
2019-06-04T14:23:22.240Z,52.90
2019-06-04T14:28:21.054Z,52.80
2019-06-04T14:33:20.731Z,52.30
2019-06-04T14:38:20.467Z,52.20
2019-06-04T14:43:20.533Z,51.70
2019-06-04T14:48:20.459Z,52.10
2019-06-04T14:53:21.017Z,51.50
2019-06-04T14:58:20.920Z,52.40
2019-06-04T15:03:20.587Z,50.80
2019-06-04T15:08:21.237Z,51.20
2019-06-04T15:13:21.440Z,51.70
2019-06-04T15:18:21.415Z,51.80
2019-06-04T15:23:21.554Z,51.60
2019-06-04T15:28:21.636Z,51.50
2019-06-04T15:33:22.372Z,50.20
2019-06-04T15:38:22.738Z,50.60
2019-06-04T15:43:23.105Z,51.40
2019-06-04T15:48:24.387Z,51.70
2019-06-04T15:53:24.508Z,51.60
2019-06-04T15:58:25.058Z,51.10
2019-06-04T16:03:25.621Z,52.70
2019-06-04T16:08:26.895Z,52.30
2019-06-04T16:13:26.816Z,52.70
2019-06-04T16:18:26.832Z,52.40
2019-06-04T16:23:27.355Z,52.40
2019-06-04T16:28:27.463Z,52.90
2019-06-04T16:33:27.145Z,52.50
2019-06-04T16:38:30.596Z,53.00
2019-06-04T16:43:29.426Z,53.40
2019-06-04T16:48:30.882Z,52.10
2019-06-04T16:53:30.908Z,53.00
2019-06-04T16:58:30.885Z,53.10
2019-06-04T17:03:33.595Z,52.80
2019-06-04T17:08:32.524Z,53.10
2019-06-04T17:13:33.257Z,53.30
2019-06-04T17:18:32.989Z,53.40
2019-06-04T17:23:32.924Z,53.60
2019-06-04T17:28:32.676Z,53.30
2019-06-04T17:33:32.617Z,53.70
2019-06-04T17:38:32.962Z,53.80
2019-06-04T17:43:33.629Z,53.70
2019-06-04T17:48:34.592Z,54.30
2019-06-04T17:53:35.003Z,54.30
2019-06-04T17:58:35.925Z,54.40
2019-06-04T18:03:35.693Z,54.40
2019-06-04T18:08:35.398Z,54.70
2019-06-04T18:13:35.394Z,54.70
2019-06-04T18:18:35.931Z,54.90
2019-06-04T18:23:36.985Z,56.10
2019-06-04T18:28:36.927Z,56.70
2019-06-04T18:33:36.844Z,57.00
2019-06-04T18:38:37.186Z,57.50
2019-06-04T18:43:47.426Z,57.90
2019-06-04T18:48:38.802Z,58.00
2019-06-04T18:53:39.600Z,57.90
2019-06-04T18:58:41.114Z,58.60
2019-06-04T19:03:41.180Z,58.40
2019-06-04T19:08:41.151Z,58.80
2019-06-04T19:14:01.291Z,59.20
2019-06-04T19:18:42.196Z,59.60
2019-06-04T19:23:41.907Z,59.80
2019-06-04T19:28:41.895Z,60.40
2019-06-04T19:33:41.860Z,61.10
2019-06-04T19:38:42.503Z,62.00
2019-06-04T19:43:42.359Z,62.00
2019-06-04T19:48:44.698Z,62.80
2019-06-04T19:53:44.965Z,62.60
2019-06-04T19:58:45.703Z,63.00
2019-06-04T20:03:46.037Z,63.00
2019-06-04T20:08:47.837Z,63.10
2019-06-04T20:13:49.794Z,63.50
2019-06-04T20:18:48.907Z,64.20
2019-06-04T20:23:49.137Z,64.60
2019-06-04T20:28:51.915Z,65.00
2019-06-04T20:33:50.633Z,65.20
2019-06-04T20:38:50.348Z,65.40
2019-06-04T20:43:50.249Z,65.20
2019-06-04T20:49:09.516Z,65.60
2019-06-04T20:53:51.493Z,65.60
2019-06-04T20:58:51.599Z,65.60
2019-06-04T21:03:52.750Z,65.50
2019-06-04T21:08:52.889Z,65.80
2019-06-04T21:13:52.591Z,65.70
2019-06-04T21:18:52.256Z,65.90
2019-06-04T21:23:52.208Z,65.90
2019-06-04T21:28:51.919Z,65.80
2019-06-04T21:33:52.776Z,65.70
2019-06-04T21:38:58.991Z,65.60
2019-06-04T21:43:58.676Z,65.50
2019-06-04T21:48:58.298Z,65.70
2019-06-04T21:54:01.990Z,65.80
2019-06-04T21:58:59.562Z,66.10
2019-06-04T22:04:00.266Z,66.00
2019-06-04T22:09:01.079Z,66.10
2019-06-04T22:14:02.946Z,65.70
2019-06-04T22:19:02.579Z,66.00
2019-06-04T22:24:02.240Z,66.00
2019-06-04T22:29:02.188Z,65.60
2019-06-04T22:34:02.841Z,65.70
2019-06-04T22:39:02.700Z,65.70
2019-06-04T22:44:04.303Z,65.50
2019-06-04T22:49:04.771Z,65.50
2019-06-04T22:54:04.663Z,65.40
2019-06-04T22:59:04.405Z,65.30
2019-06-04T23:04:05.683Z,65.30
2019-06-04T23:09:06.588Z,65.20
2019-06-04T23:14:07.854Z,65.20
2019-06-04T23:19:07.591Z,65.20
2019-06-04T23:24:07.320Z,65.60
2019-06-04T23:29:06.949Z,65.20
2019-06-04T23:34:11.046Z,65.20
2019-06-04T23:39:08.519Z,65.20
2019-06-04T23:44:08.247Z,65.10
2019-06-04T23:49:12.406Z,65.20
2019-06-04T23:54:10.126Z,65.20
2019-06-04T23:59:10.668Z,65.10
